Overview Statistics Trail Chart Weather Telemetry Raw packets
 

This is the latest recevied weather packets stored in our database for station/object KJ5FA-10. If no packets are shown the sender has not sent any weather packets the latest 10 day(s).

<< 3 4 5 6 7 8 9 >>
Time Temp. Humidity Pressure Rain* Wind** Luminosity Snow
1788413065 26.67° C 77% 1016 hPa 0 mm - - -
1788412165 26.67° C 75% 1016.1 hPa 0 mm - - -
1788411265 27.22° C 74% 1016 hPa 0 mm - - -
1788410365 27.22° C 72% 1016 hPa 0 mm - - -
1788409466 27.78° C 71% 1016 hPa 0 mm - - -
1788408566 27.78° C 70% 1016.2 hPa 0 mm - - -
1788406766 28.89° C 66% 1016.2 hPa 0 mm - - -
1788405864 28.89° C 65% 1016 hPa 0 mm - - -
1788404065 30° C 59% 1015.8 hPa 0 mm - - -
1788403164 30.56° C 59% 1015.6 hPa 0 mm - - -
1788402265 30.56° C 58% 1015.4 hPa 0 mm - - -
1788401365 30.56° C 58% 1015.4 hPa 0 mm - - -
1788400464 31.11° C 57% 1015.2 hPa 0 mm - - -
1788399564 31.11° C 56% 1015.2 hPa 0 mm - - -
1788398664 31.67° C 55% 1015 hPa 0 mm - - -
1788397764 31.67° C 54% 1014.9 hPa 0 mm - - -
1788396864 32.22° C 52% 1014.6 hPa 0 mm - - -
1788395064 33.33° C 49% 1014.4 hPa 0 mm - - -
1788394166 33.33° C 47% 1014.5 hPa 0 mm - - -
1788393264 33.89° C 47% 1014.3 hPa 0 mm - - -
1788392364 34.44° C 46% 1014.3 hPa 0 mm - - -
1788391464 34.44° C 45% 1014.2 hPa 0 mm - - -
1788390564 35° C 44% 1014.2 hPa 0 mm - - -
1788389665 35.56° C 44% 1014.5 hPa 0 mm - - -
1788388764 35.56° C 43% 1014.4 hPa 0 mm - - -

* Rain latest hour (hover to see other rain measurements)
** Current wind speed in m/s (hover to see current wind gust speed)